sensor_id;sensor_type;location;lat;lon;timestamp;P1;durP1;ratioP1;P2;durP2;ratioP2
53052;SDS011;38934;52.690;6.184;2024-01-07T00:01:17;31.52;;;17.40;;
53052;SDS011;38934;52.690;6.184;2024-01-07T00:03:43;26.55;;;16.02;;
53052;SDS011;38934;52.690;6.184;2024-01-07T00:06:10;29.45;;;17.17;;
53052;SDS011;38934;52.690;6.184;2024-01-07T00:08:36;29.15;;;17.75;;
53052;SDS011;38934;52.690;6.184;2024-01-07T00:11:02;29.35;;;17.55;;
53052;SDS011;38934;52.690;6.184;2024-01-07T00:13:28;27.67;;;16.88;;
53052;SDS011;38934;52.690;6.184;2024-01-07T00:15:54;28.48;;;17.38;;
53052;SDS011;38934;52.690;6.184;2024-01-07T00:18:21;31.38;;;17.40;;
53052;SDS011;38934;52.690;6.184;2024-01-07T00:20:49;28.00;;;17.05;;
53052;SDS011;38934;52.690;6.184;2024-01-07T00:23:15;24.58;;;15.43;;
53052;SDS011;38934;52.690;6.184;2024-01-07T00:25:41;28.95;;;16.85;;
53052;SDS011;38934;52.690;6.184;2024-01-07T00:28:07;29.80;;;16.10;;
53052;SDS011;38934;52.690;6.184;2024-01-07T00:30:33;28.23;;;16.90;;
53052;SDS011;38934;52.690;6.184;2024-01-07T00:32:59;23.40;;;15.13;;
53052;SDS011;38934;52.690;6.184;2024-01-07T00:35:25;25.20;;;15.93;;
53052;SDS011;38934;52.690;6.184;2024-01-07T00:37:51;26.80;;;16.13;;
53052;SDS011;38934;52.690;6.184;2024-01-07T00:40:17;27.02;;;16.38;;
53052;SDS011;38934;52.690;6.184;2024-01-07T00:42:43;29.02;;;17.90;;
53052;SDS011;38934;52.690;6.184;2024-01-07T00:45:09;26.05;;;16.48;;
53052;SDS011;38934;52.690;6.184;2024-01-07T00:47:35;28.95;;;16.67;;
53052;SDS011;38934;52.690;6.184;2024-01-07T00:50:01;26.55;;;16.35;;
53052;SDS011;38934;52.690;6.184;2024-01-07T00:52:27;23.15;;;14.88;;
53052;SDS011;38934;52.690;6.184;2024-01-07T00:54:53;27.13;;;15.40;;
53052;SDS011;38934;52.690;6.184;2024-01-07T00:57:19;27.08;;;16.52;;
53052;SDS011;38934;52.690;6.184;2024-01-07T00:59:45;25.35;;;15.48;;
53052;SDS011;38934;52.690;6.184;2024-01-07T01:02:11;25.77;;;16.08;;
53052;SDS011;38934;52.690;6.184;2024-01-07T01:04:40;24.95;;;14.25;;
53052;SDS011;38934;52.690;6.184;2024-01-07T01:07:06;24.88;;;15.40;;
53052;SDS011;38934;52.690;6.184;2024-01-07T01:09:33;24.65;;;15.52;;
53052;SDS011;38934;52.690;6.184;2024-01-07T01:11:59;29.50;;;16.55;;
53052;SDS011;38934;52.690;6.184;2024-01-07T01:14:25;27.27;;;16.90;;
53052;SDS011;38934;52.690;6.184;2024-01-07T01:16:51;26.35;;;15.32;;
53052;SDS011;38934;52.690;6.184;2024-01-07T01:19:17;26.50;;;15.57;;
53052;SDS011;38934;52.690;6.184;2024-01-07T01:21:44;26.60;;;15.10;;
53052;SDS011;38934;52.690;6.184;2024-01-07T01:24:10;26.55;;;14.75;;
53052;SDS011;38934;52.690;6.184;2024-01-07T01:26:36;24.70;;;14.88;;
53052;SDS011;38934;52.690;6.184;2024-01-07T01:29:04;24.35;;;15.25;;
53052;SDS011;38934;52.690;6.184;2024-01-07T01:31:30;22.27;;;14.63;;
53052;SDS011;38934;52.690;6.184;2024-01-07T01:33:56;25.48;;;15.18;;
53052;SDS011;38934;52.690;6.184;2024-01-07T01:36:22;24.92;;;15.10;;
53052;SDS011;38934;52.690;6.184;2024-01-07T01:38:49;23.25;;;14.40;;
53052;SDS011;38934;52.690;6.184;2024-01-07T01:41:15;23.23;;;14.23;;
53052;SDS011;38934;52.690;6.184;2024-01-07T01:43:41;22.98;;;14.23;;
53052;SDS011;38934;52.690;6.184;2024-01-07T01:46:07;27.15;;;14.27;;
53052;SDS011;38934;52.690;6.184;2024-01-07T01:48:35;23.35;;;13.55;;
53052;SDS011;38934;52.690;6.184;2024-01-07T01:51:02;20.98;;;13.48;;
53052;SDS011;38934;52.690;6.184;2024-01-07T01:53:28;21.02;;;13.20;;
53052;SDS011;38934;52.690;6.184;2024-01-07T01:55:57;20.13;;;12.93;;
53052;SDS011;38934;52.690;6.184;2024-01-07T01:58:27;23.25;;;13.60;;
53052;SDS011;38934;52.690;6.184;2024-01-07T02:00:55;24.20;;;13.52;;
53052;SDS011;38934;52.690;6.184;2024-01-07T02:03:21;24.90;;;14.50;;
53052;SDS011;38934;52.690;6.184;2024-01-07T02:05:48;21.55;;;13.93;;
53052;SDS011;38934;52.690;6.184;2024-01-07T02:08:15;24.15;;;14.35;;
53052;SDS011;38934;52.690;6.184;2024-01-07T02:10:42;23.08;;;13.70;;
53052;SDS011;38934;52.690;6.184;2024-01-07T02:13:08;22.92;;;14.25;;
53052;SDS011;38934;52.690;6.184;2024-01-07T02:15:34;23.98;;;14.55;;
53052;SDS011;38934;52.690;6.184;2024-01-07T02:18:00;28.27;;;15.68;;
53052;SDS011;38934;52.690;6.184;2024-01-07T02:20:26;25.73;;;14.80;;
53052;SDS011;38934;52.690;6.184;2024-01-07T02:22:52;24.88;;;15.43;;
53052;SDS011;38934;52.690;6.184;2024-01-07T02:25:18;24.63;;;15.23;;
53052;SDS011;38934;52.690;6.184;2024-01-07T02:27:44;26.73;;;14.98;;
53052;SDS011;38934;52.690;6.184;2024-01-07T02:30:10;24.45;;;14.68;;
53052;SDS011;38934;52.690;6.184;2024-01-07T02:32:36;26.45;;;15.70;;
53052;SDS011;38934;52.690;6.184;2024-01-07T02:35:03;25.40;;;15.77;;
53052;SDS011;38934;52.690;6.184;2024-01-07T02:37:29;23.38;;;14.73;;
53052;SDS011;38934;52.690;6.184;2024-01-07T02:39:55;23.50;;;14.32;;
53052;SDS011;38934;52.690;6.184;2024-01-07T02:42:21;23.23;;;14.30;;
53052;SDS011;38934;52.690;6.184;2024-01-07T02:44:47;22.50;;;14.02;;
53052;SDS011;38934;52.690;6.184;2024-01-07T02:47:13;26.45;;;15.55;;
53052;SDS011;38934;52.690;6.184;2024-01-07T02:49:39;26.15;;;15.10;;
53052;SDS011;38934;52.690;6.184;2024-01-07T02:52:05;25.25;;;14.35;;
53052;SDS011;38934;52.690;6.184;2024-01-07T02:54:31;23.25;;;14.65;;
53052;SDS011;38934;52.690;6.184;2024-01-07T02:56:57;22.05;;;13.90;;
53052;SDS011;38934;52.690;6.184;2024-01-07T02:59:23;23.35;;;14.57;;
53052;SDS011;38934;52.690;6.184;2024-01-07T03:01:49;22.60;;;14.48;;
53052;SDS011;38934;52.690;6.184;2024-01-07T03:04:15;20.58;;;13.60;;
53052;SDS011;38934;52.690;6.184;2024-01-07T03:06:41;24.15;;;13.75;;
53052;SDS011;38934;52.690;6.184;2024-01-07T03:09:07;23.67;;;13.55;;
53052;SDS011;38934;52.690;6.184;2024-01-07T03:11:38;23.10;;;14.45;;
53052;SDS011;38934;52.690;6.184;2024-01-07T03:14:05;21.23;;;12.88;;
53052;SDS011;38934;52.690;6.184;2024-01-07T03:16:31;20.23;;;12.90;;
53052;SDS011;38934;52.690;6.184;2024-01-07T03:18:57;21.52;;;13.20;;
53052;SDS011;38934;52.690;6.184;2024-01-07T03:21:23;22.63;;;14.07;;
53052;SDS011;38934;52.690;6.184;2024-01-07T03:23:50;21.42;;;14.10;;
53052;SDS011;38934;52.690;6.184;2024-01-07T03:26:17;20.60;;;13.23;;
53052;SDS011;38934;52.690;6.184;2024-01-07T03:28:43;21.60;;;13.23;;
53052;SDS011;38934;52.690;6.184;2024-01-07T03:31:13;19.63;;;13.15;;
53052;SDS011;38934;52.690;6.184;2024-01-07T03:33:39;21.85;;;12.75;;
53052;SDS011;38934;52.690;6.184;2024-01-07T03:36:06;21.40;;;12.95;;
53052;SDS011;38934;52.690;6.184;2024-01-07T03:38:33;20.55;;;13.48;;
53052;SDS011;38934;52.690;6.184;2024-01-07T03:40:59;18.85;;;13.07;;
53052;SDS011;38934;52.690;6.184;2024-01-07T03:43:25;19.55;;;12.30;;
53052;SDS011;38934;52.690;6.184;2024-01-07T03:45:51;21.50;;;13.30;;
53052;SDS011;38934;52.690;6.184;2024-01-07T03:48:17;20.95;;;13.50;;
53052;SDS011;38934;52.690;6.184;2024-01-07T03:50:43;20.90;;;13.23;;
53052;SDS011;38934;52.690;6.184;2024-01-07T03:53:09;21.50;;;14.05;;
53052;SDS011;38934;52.690;6.184;2024-01-07T03:55:35;19.13;;;12.93;;
53052;SDS011;38934;52.690;6.184;2024-01-07T03:58:01;18.83;;;12.75;;
53052;SDS011;38934;52.690;6.184;2024-01-07T04:00:28;18.33;;;12.32;;
53052;SDS011;38934;52.690;6.184;2024-01-07T04:02:54;19.77;;;12.77;;
53052;SDS011;38934;52.690;6.184;2024-01-07T04:05:20;22.08;;;12.23;;
53052;SDS011;38934;52.690;6.184;2024-01-07T04:07:46;20.48;;;12.75;;
53052;SDS011;38934;52.690;6.184;2024-01-07T04:10:12;19.98;;;13.20;;
53052;SDS011;38934;52.690;6.184;2024-01-07T04:12:38;18.40;;;11.82;;
53052;SDS011;38934;52.690;6.184;2024-01-07T04:15:04;19.90;;;12.40;;
53052;SDS011;38934;52.690;6.184;2024-01-07T04:17:30;18.33;;;12.23;;
53052;SDS011;38934;52.690;6.184;2024-01-07T04:19:56;17.15;;;11.20;;
53052;SDS011;38934;52.690;6.184;2024-01-07T04:22:22;21.48;;;11.85;;
53052;SDS011;38934;52.690;6.184;2024-01-07T04:24:48;18.88;;;11.82;;
53052;SDS011;38934;52.690;6.184;2024-01-07T04:27:14;17.92;;;11.65;;
53052;SDS011;38934;52.690;6.184;2024-01-07T04:29:40;18.60;;;12.52;;
53052;SDS011;38934;52.690;6.184;2024-01-07T04:32:06;17.40;;;11.73;;
53052;SDS011;38934;52.690;6.184;2024-01-07T04:34:32;17.88;;;11.38;;
53052;SDS011;38934;52.690;6.184;2024-01-07T04:36:58;17.73;;;12.52;;
53052;SDS011;38934;52.690;6.184;2024-01-07T04:39:24;17.45;;;11.18;;
53052;SDS011;38934;52.690;6.184;2024-01-07T04:41:51;21.17;;;12.52;;
53052;SDS011;38934;52.690;6.184;2024-01-07T04:44:17;16.95;;;11.57;;
53052;SDS011;38934;52.690;6.184;2024-01-07T04:46:43;21.58;;;12.40;;
53052;SDS011;38934;52.690;6.184;2024-01-07T04:49:09;18.83;;;11.23;;
53052;SDS011;38934;52.690;6.184;2024-01-07T04:51:35;19.92;;;12.52;;
53052;SDS011;38934;52.690;6.184;2024-01-07T04:54:03;18.35;;;10.85;;
53052;SDS011;38934;52.690;6.184;2024-01-07T04:56:31;21.13;;;12.10;;
53052;SDS011;38934;52.690;6.184;2024-01-07T04:58:57;18.52;;;11.35;;
53052;SDS011;38934;52.690;6.184;2024-01-07T05:01:23;15.63;;;10.13;;
53052;SDS011;38934;52.690;6.184;2024-01-07T05:03:49;15.68;;;10.43;;
53052;SDS011;38934;52.690;6.184;2024-01-07T05:06:15;14.48;;;9.93;;
53052;SDS011;38934;52.690;6.184;2024-01-07T05:08:41;16.60;;;10.60;;
53052;SDS011;38934;52.690;6.184;2024-01-07T05:11:07;15.82;;;10.65;;
53052;SDS011;38934;52.690;6.184;2024-01-07T05:13:34;15.00;;;10.73;;
53052;SDS011;38934;52.690;6.184;2024-01-07T05:16:01;14.00;;;9.43;;
53052;SDS011;38934;52.690;6.184;2024-01-07T05:18:27;17.02;;;9.60;;
53052;SDS011;38934;52.690;6.184;2024-01-07T05:20:53;14.90;;;10.02;;
53052;SDS011;38934;52.690;6.184;2024-01-07T05:23:19;13.65;;;9.18;;
53052;SDS011;38934;52.690;6.184;2024-01-07T05:25:45;14.98;;;10.10;;
53052;SDS011;38934;52.690;6.184;2024-01-07T05:28:12;18.08;;;10.30;;
53052;SDS011;38934;52.690;6.184;2024-01-07T05:30:38;13.50;;;9.65;;
53052;SDS011;38934;52.690;6.184;2024-01-07T05:33:04;14.85;;;9.75;;
53052;SDS011;38934;52.690;6.184;2024-01-07T05:35:31;17.17;;;11.77;;
53052;SDS011;38934;52.690;6.184;2024-01-07T05:37:57;14.23;;;9.10;;
53052;SDS011;38934;52.690;6.184;2024-01-07T05:40:23;13.38;;;8.63;;
53052;SDS011;38934;52.690;6.184;2024-01-07T05:42:49;12.15;;;8.73;;
53052;SDS011;38934;52.690;6.184;2024-01-07T05:45:15;13.43;;;9.07;;
53052;SDS011;38934;52.690;6.184;2024-01-07T05:47:41;11.05;;;7.32;;
53052;SDS011;38934;52.690;6.184;2024-01-07T05:50:07;13.70;;;9.10;;
53052;SDS011;38934;52.690;6.184;2024-01-07T05:52:33;13.30;;;8.65;;
53052;SDS011;38934;52.690;6.184;2024-01-07T05:54:59;13.70;;;8.50;;
53052;SDS011;38934;52.690;6.184;2024-01-07T05:57:25;12.38;;;7.50;;
53052;SDS011;38934;52.690;6.184;2024-01-07T05:59:51;11.82;;;7.97;;
53052;SDS011;38934;52.690;6.184;2024-01-07T06:02:17;11.18;;;7.68;;
53052;SDS011;38934;52.690;6.184;2024-01-07T06:04:43;11.27;;;7.38;;
53052;SDS011;38934;52.690;6.184;2024-01-07T06:07:09;10.32;;;7.13;;
53052;SDS011;38934;52.690;6.184;2024-01-07T06:09:35;11.02;;;6.93;;
53052;SDS011;38934;52.690;6.184;2024-01-07T06:12:01;10.38;;;7.20;;
53052;SDS011;38934;52.690;6.184;2024-01-07T06:14:27;11.18;;;7.05;;
53052;SDS011;38934;52.690;6.184;2024-01-07T06:16:53;11.25;;;6.90;;
53052;SDS011;38934;52.690;6.184;2024-01-07T06:19:20;10.88;;;6.63;;
53052;SDS011;38934;52.690;6.184;2024-01-07T06:21:46;8.00;;;6.22;;
53052;SDS011;38934;52.690;6.184;2024-01-07T06:24:12;9.65;;;6.22;;
53052;SDS011;38934;52.690;6.184;2024-01-07T06:26:38;9.10;;;6.28;;
53052;SDS011;38934;52.690;6.184;2024-01-07T06:29:05;10.70;;;5.57;;
53052;SDS011;38934;52.690;6.184;2024-01-07T06:31:31;9.88;;;6.00;;
53052;SDS011;38934;52.690;6.184;2024-01-07T06:33:57;9.30;;;5.50;;
53052;SDS011;38934;52.690;6.184;2024-01-07T06:36:24;8.15;;;5.32;;
53052;SDS011;38934;52.690;6.184;2024-01-07T06:38:50;9.00;;;5.72;;
53052;SDS011;38934;52.690;6.184;2024-01-07T06:41:16;8.57;;;5.95;;
53052;SDS011;38934;52.690;6.184;2024-01-07T06:43:42;8.70;;;5.30;;
53052;SDS011;38934;52.690;6.184;2024-01-07T06:46:09;7.00;;;4.95;;
53052;SDS011;38934;52.690;6.184;2024-01-07T06:48:35;9.02;;;5.25;;
53052;SDS011;38934;52.690;6.184;2024-01-07T06:51:01;6.78;;;4.82;;
53052;SDS011;38934;52.690;6.184;2024-01-07T06:53:28;7.03;;;5.47;;
53052;SDS011;38934;52.690;6.184;2024-01-07T06:55:54;7.25;;;5.25;;
53052;SDS011;38934;52.690;6.184;2024-01-07T06:58:20;8.60;;;5.22;;
53052;SDS011;38934;52.690;6.184;2024-01-07T07:00:46;9.10;;;4.85;;
53052;SDS011;38934;52.690;6.184;2024-01-07T07:03:12;8.30;;;5.00;;
53052;SDS011;38934;52.690;6.184;2024-01-07T07:05:38;7.90;;;5.43;;
53052;SDS011;38934;52.690;6.184;2024-01-07T07:08:04;8.45;;;5.18;;
53052;SDS011;38934;52.690;6.184;2024-01-07T07:10:30;9.68;;;5.32;;
53052;SDS011;38934;52.690;6.184;2024-01-07T07:12:56;8.15;;;4.95;;
53052;SDS011;38934;52.690;6.184;2024-01-07T07:15:22;7.97;;;5.00;;
53052;SDS011;38934;52.690;6.184;2024-01-07T07:17:51;6.60;;;4.60;;
53052;SDS011;38934;52.690;6.184;2024-01-07T07:20:17;6.20;;;4.30;;
53052;SDS011;38934;52.690;6.184;2024-01-07T07:22:44;8.07;;;4.28;;
53052;SDS011;38934;52.690;6.184;2024-01-07T07:25:10;6.97;;;4.30;;
53052;SDS011;38934;52.690;6.184;2024-01-07T07:27:36;5.40;;;4.22;;
53052;SDS011;38934;52.690;6.184;2024-01-07T07:30:03;8.57;;;4.20;;
53052;SDS011;38934;52.690;6.184;2024-01-07T07:32:29;6.80;;;4.35;;
53052;SDS011;38934;52.690;6.184;2024-01-07T07:34:55;6.10;;;4.40;;
53052;SDS011;38934;52.690;6.184;2024-01-07T07:37:21;6.53;;;4.28;;
53052;SDS011;38934;52.690;6.184;2024-01-07T07:39:47;6.55;;;4.30;;
53052;SDS011;38934;52.690;6.184;2024-01-07T07:42:14;5.82;;;4.10;;
53052;SDS011;38934;52.690;6.184;2024-01-07T07:44:41;6.72;;;4.47;;
53052;SDS011;38934;52.690;6.184;2024-01-07T07:47:07;6.90;;;3.88;;
53052;SDS011;38934;52.690;6.184;2024-01-07T07:49:33;6.85;;;4.53;;
53052;SDS011;38934;52.690;6.184;2024-01-07T07:52:00;6.55;;;4.07;;
53052;SDS011;38934;52.690;6.184;2024-01-07T07:54:26;5.75;;;4.07;;
53052;SDS011;38934;52.690;6.184;2024-01-07T07:56:52;6.72;;;4.30;;
53052;SDS011;38934;52.690;6.184;2024-01-07T07:59:18;7.25;;;4.13;;
53052;SDS011;38934;52.690;6.184;2024-01-07T08:01:45;6.40;;;4.13;;
53052;SDS011;38934;52.690;6.184;2024-01-07T08:04:11;4.95;;;3.65;;
53052;SDS011;38934;52.690;6.184;2024-01-07T08:06:37;5.35;;;4.25;;
53052;SDS011;38934;52.690;6.184;2024-01-07T08:09:03;5.65;;;3.97;;
53052;SDS011;38934;52.690;6.184;2024-01-07T08:11:29;4.53;;;3.63;;
53052;SDS011;38934;52.690;6.184;2024-01-07T08:13:55;4.90;;;3.60;;
53052;SDS011;38934;52.690;6.184;2024-01-07T08:16:22;6.95;;;4.13;;
53052;SDS011;38934;52.690;6.184;2024-01-07T08:18:48;6.05;;;3.97;;
53052;SDS011;38934;52.690;6.184;2024-01-07T08:21:14;5.90;;;4.35;;
53052;SDS011;38934;52.690;6.184;2024-01-07T08:23:40;5.00;;;3.95;;
53052;SDS011;38934;52.690;6.184;2024-01-07T08:26:07;4.82;;;3.42;;
53052;SDS011;38934;52.690;6.184;2024-01-07T08:28:33;4.85;;;3.42;;
53052;SDS011;38934;52.690;6.184;2024-01-07T08:30:59;5.35;;;3.70;;
53052;SDS011;38934;52.690;6.184;2024-01-07T08:33:25;4.72;;;3.13;;
53052;SDS011;38934;52.690;6.184;2024-01-07T08:35:51;4.70;;;3.60;;
53052;SDS011;38934;52.690;6.184;2024-01-07T08:38:17;6.82;;;3.40;;
53052;SDS011;38934;52.690;6.184;2024-01-07T08:40:43;6.18;;;3.63;;
53052;SDS011;38934;52.690;6.184;2024-01-07T08:43:09;8.52;;;3.22;;
53052;SDS011;38934;52.690;6.184;2024-01-07T08:45:35;8.23;;;3.58;;
53052;SDS011;38934;52.690;6.184;2024-01-07T08:48:01;7.10;;;3.58;;
53052;SDS011;38934;52.690;6.184;2024-01-07T08:50:27;4.25;;;3.50;;
53052;SDS011;38934;52.690;6.184;2024-01-07T08:52:55;6.28;;;3.85;;
53052;SDS011;38934;52.690;6.184;2024-01-07T08:55:21;4.97;;;3.28;;
53052;SDS011;38934;52.690;6.184;2024-01-07T08:57:47;5.15;;;3.58;;
53052;SDS011;38934;52.690;6.184;2024-01-07T09:00:14;5.05;;;3.20;;
53052;SDS011;38934;52.690;6.184;2024-01-07T09:02:40;4.90;;;3.40;;
53052;SDS011;38934;52.690;6.184;2024-01-07T09:05:06;6.03;;;3.60;;
53052;SDS011;38934;52.690;6.184;2024-01-07T09:07:32;5.85;;;3.70;;
53052;SDS011;38934;52.690;6.184;2024-01-07T09:09:58;4.35;;;3.17;;
53052;SDS011;38934;52.690;6.184;2024-01-07T09:12:26;6.20;;;2.97;;
53052;SDS011;38934;52.690;6.184;2024-01-07T09:14:52;5.40;;;3.22;;
53052;SDS011;38934;52.690;6.184;2024-01-07T09:17:18;6.53;;;3.35;;
53052;SDS011;38934;52.690;6.184;2024-01-07T09:19:44;5.78;;;3.00;;
53052;SDS011;38934;52.690;6.184;2024-01-07T09:22:10;4.93;;;3.30;;
53052;SDS011;38934;52.690;6.184;2024-01-07T09:24:37;5.00;;;3.20;;
53052;SDS011;38934;52.690;6.184;2024-01-07T09:27:03;4.60;;;3.40;;
53052;SDS011;38934;52.690;6.184;2024-01-07T09:29:29;3.42;;;2.95;;
53052;SDS011;38934;52.690;6.184;2024-01-07T09:31:56;6.18;;;3.08;;
53052;SDS011;38934;52.690;6.184;2024-01-07T09:34:22;4.63;;;3.30;;
53052;SDS011;38934;52.690;6.184;2024-01-07T09:36:48;5.43;;;3.28;;
53052;SDS011;38934;52.690;6.184;2024-01-07T09:39:14;5.15;;;3.38;;
53052;SDS011;38934;52.690;6.184;2024-01-07T09:41:40;5.90;;;3.00;;
53052;SDS011;38934;52.690;6.184;2024-01-07T09:44:06;4.10;;;3.03;;
53052;SDS011;38934;52.690;6.184;2024-01-07T09:46:34;3.95;;;3.20;;
53052;SDS011;38934;52.690;6.184;2024-01-07T09:49:02;5.47;;;3.17;;
53052;SDS011;38934;52.690;6.184;2024-01-07T09:51:28;3.63;;;3.00;;
53052;SDS011;38934;52.690;6.184;2024-01-07T09:53:56;5.80;;;3.10;;
53052;SDS011;38934;52.690;6.184;2024-01-07T09:56:24;4.30;;;3.35;;
53052;SDS011;38934;52.690;6.184;2024-01-07T09:58:50;5.10;;;3.85;;
53052;SDS011;38934;52.690;6.184;2024-01-07T10:01:19;6.25;;;3.67;;
53052;SDS011;38934;52.690;6.184;2024-01-07T10:03:46;5.10;;;3.28;;
53052;SDS011;38934;52.690;6.184;2024-01-07T10:06:12;5.88;;;3.30;;
53052;SDS011;38934;52.690;6.184;2024-01-07T10:08:47;11.57;;;3.33;;
53052;SDS011;38934;52.690;6.184;2024-01-07T10:11:13;3.90;;;3.35;;
53052;SDS011;38934;52.690;6.184;2024-01-07T10:13:40;4.10;;;3.30;;
53052;SDS011;38934;52.690;6.184;2024-01-07T10:16:07;4.30;;;3.38;;
53052;SDS011;38934;52.690;6.184;2024-01-07T10:18:33;3.85;;;2.80;;
53052;SDS011;38934;52.690;6.184;2024-01-07T10:21:03;5.68;;;3.25;;
53052;SDS011;38934;52.690;6.184;2024-01-07T10:23:29;4.68;;;2.80;;
53052;SDS011;38934;52.690;6.184;2024-01-07T10:25:55;4.10;;;3.00;;
53052;SDS011;38934;52.690;6.184;2024-01-07T10:28:22;4.20;;;2.75;;
53052;SDS011;38934;52.690;6.184;2024-01-07T10:30:48;5.25;;;2.83;;
53052;SDS011;38934;52.690;6.184;2024-01-07T10:33:16;4.47;;;2.70;;
53052;SDS011;38934;52.690;6.184;2024-01-07T10:35:44;4.25;;;3.00;;
53052;SDS011;38934;52.690;6.184;2024-01-07T10:38:14;3.40;;;3.10;;
53052;SDS011;38934;52.690;6.184;2024-01-07T10:40:40;3.90;;;3.17;;
53052;SDS011;38934;52.690;6.184;2024-01-07T10:43:06;3.60;;;2.92;;
53052;SDS011;38934;52.690;6.184;2024-01-07T10:45:32;3.17;;;2.88;;
53052;SDS011;38934;52.690;6.184;2024-01-07T10:47:59;3.58;;;2.72;;
53052;SDS011;38934;52.690;6.184;2024-01-07T10:50:26;6.13;;;3.40;;
53052;SDS011;38934;52.690;6.184;2024-01-07T10:52:57;3.72;;;2.38;;
53052;SDS011;38934;52.690;6.184;2024-01-07T10:55:25;4.88;;;2.88;;
53052;SDS011;38934;52.690;6.184;2024-01-07T10:57:51;3.63;;;2.92;;
53052;SDS011;38934;52.690;6.184;2024-01-07T11:00:19;3.70;;;2.78;;
53052;SDS011;38934;52.690;6.184;2024-01-07T11:03:04;3.25;;;2.47;;
53052;SDS011;38934;52.690;6.184;2024-01-07T11:08:03;3.15;;;2.70;;
53052;SDS011;38934;52.690;6.184;2024-01-07T11:10:42;3.28;;;2.58;;
53052;SDS011;38934;52.690;6.184;2024-01-07T11:13:09;3.38;;;2.20;;
53052;SDS011;38934;52.690;6.184;2024-01-07T11:18:21;2.47;;;2.28;;
53052;SDS011;38934;52.690;6.184;2024-01-07T11:20:47;2.58;;;2.38;;
53052;SDS011;38934;52.690;6.184;2024-01-07T11:23:26;2.42;;;2.15;;
53052;SDS011;38934;52.690;6.184;2024-01-07T11:26:04;3.85;;;2.83;;
53052;SDS011;38934;52.690;6.184;2024-01-07T11:28:47;4.20;;;2.30;;
53052;SDS011;38934;52.690;6.184;2024-01-07T11:31:14;3.13;;;2.33;;
53052;SDS011;38934;52.690;6.184;2024-01-07T11:33:44;4.68;;;2.47;;
53052;SDS011;38934;52.690;6.184;2024-01-07T11:36:11;3.65;;;2.35;;
53052;SDS011;38934;52.690;6.184;2024-01-07T11:38:38;4.68;;;2.75;;
53052;SDS011;38934;52.690;6.184;2024-01-07T11:41:07;3.70;;;2.55;;
53052;SDS011;38934;52.690;6.184;2024-01-07T11:43:34;4.18;;;3.00;;
53052;SDS011;38934;52.690;6.184;2024-01-07T11:46:00;4.10;;;2.65;;
53052;SDS011;38934;52.690;6.184;2024-01-07T11:48:26;6.53;;;3.15;;
53052;SDS011;38934;52.690;6.184;2024-01-07T11:50:52;3.30;;;2.80;;
53052;SDS011;38934;52.690;6.184;2024-01-07T11:53:18;5.45;;;2.65;;
53052;SDS011;38934;52.690;6.184;2024-01-07T11:55:44;3.90;;;2.42;;
53052;SDS011;38934;52.690;6.184;2024-01-07T11:58:11;3.78;;;2.83;;
53052;SDS011;38934;52.690;6.184;2024-01-07T12:00:37;4.00;;;2.90;;
53052;SDS011;38934;52.690;6.184;2024-01-07T12:03:03;4.80;;;2.75;;
53052;SDS011;38934;52.690;6.184;2024-01-07T12:05:30;4.28;;;3.08;;
53052;SDS011;38934;52.690;6.184;2024-01-07T12:07:56;4.18;;;2.85;;
53052;SDS011;38934;52.690;6.184;2024-01-07T12:10:22;6.45;;;3.10;;
53052;SDS011;38934;52.690;6.184;2024-01-07T12:12:49;2.88;;;2.60;;
53052;SDS011;38934;52.690;6.184;2024-01-07T12:15:19;4.18;;;3.03;;
53052;SDS011;38934;52.690;6.184;2024-01-07T12:17:55;2.90;;;2.60;;
53052;SDS011;38934;52.690;6.184;2024-01-07T12:20:22;6.05;;;2.90;;
53052;SDS011;38934;52.690;6.184;2024-01-07T12:22:48;3.65;;;2.45;;
53052;SDS011;38934;52.690;6.184;2024-01-07T12:25:20;3.22;;;2.80;;
53052;SDS011;38934;52.690;6.184;2024-01-07T12:30:17;4.38;;;2.80;;
53052;SDS011;38934;52.690;6.184;2024-01-07T12:32:43;6.32;;;3.05;;
53052;SDS011;38934;52.690;6.184;2024-01-07T12:35:10;3.63;;;2.83;;
53052;SDS011;38934;52.690;6.184;2024-01-07T12:37:36;5.45;;;2.78;;
53052;SDS011;38934;52.690;6.184;2024-01-07T12:40:03;3.38;;;2.95;;
53052;SDS011;38934;52.690;6.184;2024-01-07T12:42:29;4.03;;;2.90;;
53052;SDS011;38934;52.690;6.184;2024-01-07T12:44:55;3.75;;;2.60;;
53052;SDS011;38934;52.690;6.184;2024-01-07T12:47:21;5.03;;;2.85;;
53052;SDS011;38934;52.690;6.184;2024-01-07T12:49:48;6.40;;;3.10;;
53052;SDS011;38934;52.690;6.184;2024-01-07T12:52:14;5.10;;;2.90;;
53052;SDS011;38934;52.690;6.184;2024-01-07T12:54:40;5.10;;;3.00;;
53052;SDS011;38934;52.690;6.184;2024-01-07T12:57:06;4.25;;;3.03;;
53052;SDS011;38934;52.690;6.184;2024-01-07T12:59:32;5.47;;;3.08;;
53052;SDS011;38934;52.690;6.184;2024-01-07T13:01:58;3.90;;;3.00;;
53052;SDS011;38934;52.690;6.184;2024-01-07T13:04:25;6.35;;;3.00;;
53052;SDS011;38934;52.690;6.184;2024-01-07T13:06:51;4.55;;;2.67;;
53052;SDS011;38934;52.690;6.184;2024-01-07T13:09:17;5.38;;;2.90;;
53052;SDS011;38934;52.690;6.184;2024-01-07T13:11:43;3.25;;;2.63;;
53052;SDS011;38934;52.690;6.184;2024-01-07T13:14:09;3.70;;;3.05;;
53052;SDS011;38934;52.690;6.184;2024-01-07T13:16:35;7.38;;;3.47;;
53052;SDS011;38934;52.690;6.184;2024-01-07T13:19:01;5.80;;;3.42;;
53052;SDS011;38934;52.690;6.184;2024-01-07T13:21:29;4.78;;;3.00;;
53052;SDS011;38934;52.690;6.184;2024-01-07T13:23:55;3.95;;;2.95;;
53052;SDS011;38934;52.690;6.184;2024-01-07T13:26:24;4.47;;;3.20;;
53052;SDS011;38934;52.690;6.184;2024-01-07T13:28:50;4.95;;;3.17;;
53052;SDS011;38934;52.690;6.184;2024-01-07T13:31:16;4.65;;;3.28;;
53052;SDS011;38934;52.690;6.184;2024-01-07T13:33:42;5.43;;;3.70;;
53052;SDS011;38934;52.690;6.184;2024-01-07T13:36:08;5.25;;;3.03;;
53052;SDS011;38934;52.690;6.184;2024-01-07T13:38:36;5.28;;;3.20;;
53052;SDS011;38934;52.690;6.184;2024-01-07T13:41:06;7.35;;;3.45;;
53052;SDS011;38934;52.690;6.184;2024-01-07T13:43:32;8.77;;;3.90;;
53052;SDS011;38934;52.690;6.184;2024-01-07T13:46:08;5.53;;;3.97;;
53052;SDS011;38934;52.690;6.184;2024-01-07T13:48:34;6.47;;;4.00;;
53052;SDS011;38934;52.690;6.184;2024-01-07T13:51:02;7.32;;;4.03;;
53052;SDS011;38934;52.690;6.184;2024-01-07T13:53:28;5.50;;;3.63;;
53052;SDS011;38934;52.690;6.184;2024-01-07T13:55:54;8.75;;;4.10;;
53052;SDS011;38934;52.690;6.184;2024-01-07T13:58:21;4.80;;;3.70;;
53052;SDS011;38934;52.690;6.184;2024-01-07T14:00:48;9.20;;;4.03;;
53052;SDS011;38934;52.690;6.184;2024-01-07T14:03:14;7.50;;;4.10;;
53052;SDS011;38934;52.690;6.184;2024-01-07T14:05:40;5.50;;;3.50;;
53052;SDS011;38934;52.690;6.184;2024-01-07T14:08:06;5.30;;;3.63;;
53052;SDS011;38934;52.690;6.184;2024-01-07T14:10:32;5.78;;;3.88;;
53052;SDS011;38934;52.690;6.184;2024-01-07T14:12:58;5.95;;;3.78;;
53052;SDS011;38934;52.690;6.184;2024-01-07T14:15:24;8.20;;;4.35;;
53052;SDS011;38934;52.690;6.184;2024-01-07T14:17:50;8.75;;;4.53;;
53052;SDS011;38934;52.690;6.184;2024-01-07T14:20:16;6.35;;;4.50;;
53052;SDS011;38934;52.690;6.184;2024-01-07T14:22:43;6.38;;;4.15;;
53052;SDS011;38934;52.690;6.184;2024-01-07T14:25:09;6.95;;;5.00;;
53052;SDS011;38934;52.690;6.184;2024-01-07T14:27:35;8.45;;;5.05;;
53052;SDS011;38934;52.690;6.184;2024-01-07T14:30:01;6.90;;;4.47;;
53052;SDS011;38934;52.690;6.184;2024-01-07T14:32:27;8.95;;;4.80;;
53052;SDS011;38934;52.690;6.184;2024-01-07T14:34:53;7.38;;;5.35;;
53052;SDS011;38934;52.690;6.184;2024-01-07T14:37:19;7.10;;;4.80;;
53052;SDS011;38934;52.690;6.184;2024-01-07T14:39:45;9.20;;;4.95;;